sensor_id;sensor_type;location;lat;lon;timestamp;P1;durP1;ratioP1;P2;durP2;ratioP2
68995;SDS011;56056;48.990;12.146;2023-02-28T00:00:06;38.03;;;34.30;;
68995;SDS011;56056;48.990;12.146;2023-02-28T00:02:36;3.80;;;3.60;;
68995;SDS011;56056;48.990;12.146;2023-02-28T00:05:01;6.87;;;6.20;;
68995;SDS011;56056;48.990;12.146;2023-02-28T00:07:28;2.30;;;2.20;;
68995;SDS011;56056;48.990;12.146;2023-02-28T00:09:54;4.03;;;3.80;;
68995;SDS011;56056;48.990;12.146;2023-02-28T00:12:21;6.97;;;6.30;;
68995;SDS011;56056;48.990;12.146;2023-02-28T00:14:46;8.67;;;5.63;;
68995;SDS011;56056;48.990;12.146;2023-02-28T00:17:12;87.43;;;79.63;;
68995;SDS011;56056;48.990;12.146;2023-02-28T00:19:37;8.07;;;7.37;;
68995;SDS011;56056;48.990;12.146;2023-02-28T00:22:03;6.77;;;4.43;;
68995;SDS011;56056;48.990;12.146;2023-02-28T00:24:29;20.13;;;17.13;;
68995;SDS011;56056;48.990;12.146;2023-02-28T00:26:54;72.10;;;65.10;;
68995;SDS011;56056;48.990;12.146;2023-02-28T00:29:21;17.83;;;16.20;;
68995;SDS011;56056;48.990;12.146;2023-02-28T00:31:47;113.23;;;101.90;;
68995;SDS011;56056;48.990;12.146;2023-02-28T00:34:13;5.47;;;5.00;;
68995;SDS011;56056;48.990;12.146;2023-02-28T00:36:38;19.87;;;18.37;;
68995;SDS011;56056;48.990;12.146;2023-02-28T00:39:05;29.10;;;26.47;;
68995;SDS011;56056;48.990;12.146;2023-02-28T00:41:31;18.07;;;15.10;;
68995;SDS011;56056;48.990;12.146;2023-02-28T00:43:57;24.17;;;21.30;;
68995;SDS011;56056;48.990;12.146;2023-02-28T00:46:24;12.50;;;11.37;;
68995;SDS011;56056;48.990;12.146;2023-02-28T00:48:49;12.73;;;11.77;;
68995;SDS011;56056;48.990;12.146;2023-02-28T00:51:15;33.87;;;31.33;;
68995;SDS011;56056;48.990;12.146;2023-02-28T00:53:41;65.03;;;60.50;;
68995;SDS011;56056;48.990;12.146;2023-02-28T00:56:06;7.87;;;5.33;;
68995;SDS011;56056;48.990;12.146;2023-02-28T00:58:32;23.23;;;21.43;;
68995;SDS011;56056;48.990;12.146;2023-02-28T01:00:58;5.73;;;5.43;;
68995;SDS011;56056;48.990;12.146;2023-02-28T01:03:25;13.00;;;6.27;;
68995;SDS011;56056;48.990;12.146;2023-02-28T01:05:50;4.10;;;3.90;;
68995;SDS011;56056;48.990;12.146;2023-02-28T01:08:18;4.57;;;4.13;;
68995;SDS011;56056;48.990;12.146;2023-02-28T01:10:44;3.97;;;3.73;;
68995;SDS011;56056;48.990;12.146;2023-02-28T01:13:09;13.40;;;11.97;;
68995;SDS011;56056;48.990;12.146;2023-02-28T01:15:36;17.13;;;15.43;;
68995;SDS011;56056;48.990;12.146;2023-02-28T01:18:01;11.13;;;10.20;;
68995;SDS011;56056;48.990;12.146;2023-02-28T01:20:28;9.67;;;8.97;;
68995;SDS011;56056;48.990;12.146;2023-02-28T01:22:54;38.40;;;35.20;;
68995;SDS011;56056;48.990;12.146;2023-02-28T01:25:20;21.10;;;19.20;;
68995;SDS011;56056;48.990;12.146;2023-02-28T01:27:45;140.40;;;125.50;;
68995;SDS011;56056;48.990;12.146;2023-02-28T01:30:11;30.47;;;27.90;;
68995;SDS011;56056;48.990;12.146;2023-02-28T01:32:37;9.13;;;8.63;;
68995;SDS011;56056;48.990;12.146;2023-02-28T01:35:03;3.27;;;3.10;;
68995;SDS011;56056;48.990;12.146;2023-02-28T01:37:31;46.10;;;43.07;;
68995;SDS011;56056;48.990;12.146;2023-02-28T01:39:57;76.20;;;68.70;;
68995;SDS011;56056;48.990;12.146;2023-02-28T01:42:22;54.87;;;50.53;;
68995;SDS011;56056;48.990;12.146;2023-02-28T01:44:57;30.60;;;28.27;;
68995;SDS011;56056;48.990;12.146;2023-02-28T01:47:29;23.73;;;21.83;;
68995;SDS011;56056;48.990;12.146;2023-02-28T01:49:57;11.83;;;9.10;;
68995;SDS011;56056;48.990;12.146;2023-02-28T01:52:23;12.83;;;11.97;;
68995;SDS011;56056;48.990;12.146;2023-02-28T01:54:52;8.70;;;8.10;;
68995;SDS011;56056;48.990;12.146;2023-02-28T01:57:21;20.77;;;19.17;;
68995;SDS011;56056;48.990;12.146;2023-02-28T01:59:50;5.50;;;5.17;;
68995;SDS011;56056;48.990;12.146;2023-02-28T02:02:18;9.80;;;6.87;;
68995;SDS011;56056;48.990;12.146;2023-02-28T02:04:46;99.90;;;92.20;;
68995;SDS011;56056;48.990;12.146;2023-02-28T02:07:16;9.23;;;8.37;;
68995;SDS011;56056;48.990;12.146;2023-02-28T02:09:42;8.30;;;7.47;;
68995;SDS011;56056;48.990;12.146;2023-02-28T02:12:10;18.53;;;17.13;;
68995;SDS011;56056;48.990;12.146;2023-02-28T02:14:43;247.63;;;198.77;;
68995;SDS011;56056;48.990;12.146;2023-02-28T02:17:19;9.73;;;9.17;;
68995;SDS011;56056;48.990;12.146;2023-02-28T02:19:55;19.00;;;17.57;;
68995;SDS011;56056;48.990;12.146;2023-02-28T02:23:07;15.90;;;14.63;;
68995;SDS011;56056;48.990;12.146;2023-02-28T02:25:58;34.40;;;31.13;;
68995;SDS011;56056;48.990;12.146;2023-02-28T02:28:49;35.13;;;32.43;;
68995;SDS011;56056;48.990;12.146;2023-02-28T02:31:30;8.50;;;7.53;;
68995;SDS011;56056;48.990;12.146;2023-02-28T02:34:20;28.30;;;25.40;;
68995;SDS011;56056;48.990;12.146;2023-02-28T02:36:51;10.70;;;10.17;;
68995;SDS011;56056;48.990;12.146;2023-02-28T02:39:23;29.20;;;26.40;;
68995;SDS011;56056;48.990;12.146;2023-02-28T02:41:54;27.03;;;24.83;;
68995;SDS011;56056;48.990;12.146;2023-02-28T02:44:24;12.93;;;12.00;;
68995;SDS011;56056;48.990;12.146;2023-02-28T02:46:53;59.10;;;55.20;;
68995;SDS011;56056;48.990;12.146;2023-02-28T02:49:22;65.40;;;60.60;;
68995;SDS011;56056;48.990;12.146;2023-02-28T02:51:49;23.03;;;21.33;;
68995;SDS011;56056;48.990;12.146;2023-02-28T02:54:17;14.83;;;12.83;;
68995;SDS011;56056;48.990;12.146;2023-02-28T02:56:46;15.27;;;13.87;;
68995;SDS011;56056;48.990;12.146;2023-02-28T02:59:15;10.00;;;9.23;;
68995;SDS011;56056;48.990;12.146;2023-02-28T03:01:46;7.73;;;7.33;;
68995;SDS011;56056;48.990;12.146;2023-02-28T03:04:23;6.20;;;5.87;;
68995;SDS011;56056;48.990;12.146;2023-02-28T03:06:51;8.00;;;6.93;;
68995;SDS011;56056;48.990;12.146;2023-02-28T03:09:20;18.67;;;17.40;;
68995;SDS011;56056;48.990;12.146;2023-02-28T03:11:46;21.70;;;20.00;;
68995;SDS011;56056;48.990;12.146;2023-02-28T03:14:20;12.43;;;9.77;;
68995;SDS011;56056;48.990;12.146;2023-02-28T03:17:20;8.60;;;8.07;;
68995;SDS011;56056;48.990;12.146;2023-02-28T03:19:56;16.70;;;15.40;;
68995;SDS011;56056;48.990;12.146;2023-02-28T03:22:33;4.57;;;4.37;;
68995;SDS011;56056;48.990;12.146;2023-02-28T03:25:07;16.40;;;14.70;;
68995;SDS011;56056;48.990;12.146;2023-02-28T03:27:35;31.87;;;28.87;;
68995;SDS011;56056;48.990;12.146;2023-02-28T03:30:04;18.17;;;16.47;;
68995;SDS011;56056;48.990;12.146;2023-02-28T03:32:35;8.73;;;8.03;;
68995;SDS011;56056;48.990;12.146;2023-02-28T03:35:06;20.23;;;18.73;;
68995;SDS011;56056;48.990;12.146;2023-02-28T03:37:35;19.73;;;18.23;;
68995;SDS011;56056;48.990;12.146;2023-02-28T03:40:03;15.03;;;13.63;;
68995;SDS011;56056;48.990;12.146;2023-02-28T03:42:31;25.37;;;23.40;;
68995;SDS011;56056;48.990;12.146;2023-02-28T03:45:02;42.93;;;39.43;;
68995;SDS011;56056;48.990;12.146;2023-02-28T03:47:32;7.97;;;7.37;;
68995;SDS011;56056;48.990;12.146;2023-02-28T03:50:01;26.27;;;24.67;;
68995;SDS011;56056;48.990;12.146;2023-02-28T03:52:33;5.53;;;5.13;;
68995;SDS011;56056;48.990;12.146;2023-02-28T03:55:00;22.27;;;20.63;;
68995;SDS011;56056;48.990;12.146;2023-02-28T03:57:32;45.27;;;41.87;;
68995;SDS011;56056;48.990;12.146;2023-02-28T04:00:00;9.93;;;9.17;;
68995;SDS011;56056;48.990;12.146;2023-02-28T04:02:30;26.60;;;24.60;;
68995;SDS011;56056;48.990;12.146;2023-02-28T04:04:56;5.90;;;5.57;;
68995;SDS011;56056;48.990;12.146;2023-02-28T04:07:23;7.00;;;6.43;;
68995;SDS011;56056;48.990;12.146;2023-02-28T04:09:49;20.23;;;18.30;;
68995;SDS011;56056;48.990;12.146;2023-02-28T04:12:14;13.67;;;12.63;;
68995;SDS011;56056;48.990;12.146;2023-02-28T04:14:40;13.70;;;12.20;;
68995;SDS011;56056;48.990;12.146;2023-02-28T04:17:06;19.80;;;17.80;;
68995;SDS011;56056;48.990;12.146;2023-02-28T04:19:32;24.20;;;21.83;;
68995;SDS011;56056;48.990;12.146;2023-02-28T04:21:58;11.70;;;7.10;;
68995;SDS011;56056;48.990;12.146;2023-02-28T04:24:27;22.00;;;20.53;;
68995;SDS011;56056;48.990;12.146;2023-02-28T04:26:54;28.73;;;26.63;;
68995;SDS011;56056;48.990;12.146;2023-02-28T04:29:22;129.53;;;122.43;;
68995;SDS011;56056;48.990;12.146;2023-02-28T04:31:49;20.63;;;19.27;;
68995;SDS011;56056;48.990;12.146;2023-02-28T04:34:15;22.33;;;20.00;;
68995;SDS011;56056;48.990;12.146;2023-02-28T04:36:41;15.17;;;10.00;;
68995;SDS011;56056;48.990;12.146;2023-02-28T04:39:07;15.43;;;14.20;;
68995;SDS011;56056;48.990;12.146;2023-02-28T04:41:36;18.53;;;17.13;;
68995;SDS011;56056;48.990;12.146;2023-02-28T04:44:01;21.03;;;19.53;;
68995;SDS011;56056;48.990;12.146;2023-02-28T04:46:27;40.13;;;37.30;;
68995;SDS011;56056;48.990;12.146;2023-02-28T04:48:53;13.67;;;13.03;;
68995;SDS011;56056;48.990;12.146;2023-02-28T04:51:19;28.03;;;26.33;;
68995;SDS011;56056;48.990;12.146;2023-02-28T04:53:45;11.63;;;6.97;;
68995;SDS011;56056;48.990;12.146;2023-02-28T04:56:12;27.17;;;25.17;;
68995;SDS011;56056;48.990;12.146;2023-02-28T04:58:40;15.00;;;13.83;;
68995;SDS011;56056;48.990;12.146;2023-02-28T05:01:07;21.43;;;19.73;;
68995;SDS011;56056;48.990;12.146;2023-02-28T05:03:45;15.87;;;15.03;;
68995;SDS011;56056;48.990;12.146;2023-02-28T05:06:11;17.10;;;15.70;;
68995;SDS011;56056;48.990;12.146;2023-02-28T05:08:37;8.83;;;8.33;;
68995;SDS011;56056;48.990;12.146;2023-02-28T05:11:03;185.70;;;141.67;;
68995;SDS011;56056;48.990;12.146;2023-02-28T05:13:30;10.13;;;9.50;;
68995;SDS011;56056;48.990;12.146;2023-02-28T05:15:57;13.20;;;12.00;;
68995;SDS011;56056;48.990;12.146;2023-02-28T05:18:23;9.37;;;8.40;;
68995;SDS011;56056;48.990;12.146;2023-02-28T05:20:49;109.23;;;100.43;;
68995;SDS011;56056;48.990;12.146;2023-02-28T05:23:14;55.63;;;51.73;;
68995;SDS011;56056;48.990;12.146;2023-02-28T05:25:41;12.30;;;8.67;;
68995;SDS011;56056;48.990;12.146;2023-02-28T05:28:07;24.73;;;18.70;;
68995;SDS011;56056;48.990;12.146;2023-02-28T05:30:33;12.80;;;11.87;;
68995;SDS011;56056;48.990;12.146;2023-02-28T05:33:00;15.90;;;13.37;;
68995;SDS011;56056;48.990;12.146;2023-02-28T05:35:26;23.47;;;21.67;;
68995;SDS011;56056;48.990;12.146;2023-02-28T05:37:51;5.90;;;5.50;;
68995;SDS011;56056;48.990;12.146;2023-02-28T05:40:17;11.00;;;9.93;;
68995;SDS011;56056;48.990;12.146;2023-02-28T05:42:45;21.73;;;20.13;;
68995;SDS011;56056;48.990;12.146;2023-02-28T05:45:11;5.80;;;5.47;;
68995;SDS011;56056;48.990;12.146;2023-02-28T05:47:36;5.37;;;5.07;;
68995;SDS011;56056;48.990;12.146;2023-02-28T05:50:04;6.57;;;6.07;;
68995;SDS011;56056;48.990;12.146;2023-02-28T05:52:31;11.07;;;10.40;;
68995;SDS011;56056;48.990;12.146;2023-02-28T05:54:57;7.90;;;7.17;;
68995;SDS011;56056;48.990;12.146;2023-02-28T05:57:23;155.90;;;143.17;;
68995;SDS011;56056;48.990;12.146;2023-02-28T05:59:49;12.47;;;11.60;;
68995;SDS011;56056;48.990;12.146;2023-02-28T06:02:15;25.93;;;23.17;;
68995;SDS011;56056;48.990;12.146;2023-02-28T06:04:42;19.00;;;16.80;;
68995;SDS011;56056;48.990;12.146;2023-02-28T06:07:09;19.80;;;18.30;;
68995;SDS011;56056;48.990;12.146;2023-02-28T06:09:35;22.27;;;20.57;;
68995;SDS011;56056;48.990;12.146;2023-02-28T06:12:02;7.57;;;7.10;;
68995;SDS011;56056;48.990;12.146;2023-02-28T06:14:30;20.67;;;19.07;;
68995;SDS011;56056;48.990;12.146;2023-02-28T06:16:57;10.10;;;7.87;;
68995;SDS011;56056;48.990;12.146;2023-02-28T06:19:23;20.23;;;18.73;;
68995;SDS011;56056;48.990;12.146;2023-02-28T06:21:52;13.17;;;12.10;;
68995;SDS011;56056;48.990;12.146;2023-02-28T06:24:20;19.90;;;17.70;;
68995;SDS011;56056;48.990;12.146;2023-02-28T06:26:46;27.03;;;24.37;;
68995;SDS011;56056;48.990;12.146;2023-02-28T06:29:12;15.93;;;14.47;;
68995;SDS011;56056;48.990;12.146;2023-02-28T06:31:41;11.20;;;10.13;;
68995;SDS011;56056;48.990;12.146;2023-02-28T06:34:08;8.13;;;7.57;;
68995;SDS011;56056;48.990;12.146;2023-02-28T06:36:36;15.57;;;14.30;;
68995;SDS011;56056;48.990;12.146;2023-02-28T06:39:02;11.47;;;10.77;;
68995;SDS011;56056;48.990;12.146;2023-02-28T06:41:29;5.53;;;5.13;;
68995;SDS011;56056;48.990;12.146;2023-02-28T06:43:54;19.93;;;17.93;;
68995;SDS011;56056;48.990;12.146;2023-02-28T06:46:20;4.97;;;4.63;;
68995;SDS011;56056;48.990;12.146;2023-02-28T06:48:46;6.40;;;6.00;;
68995;SDS011;56056;48.990;12.146;2023-02-28T06:51:13;12.20;;;7.27;;
68995;SDS011;56056;48.990;12.146;2023-02-28T06:53:40;5.23;;;4.70;;
68995;SDS011;56056;48.990;12.146;2023-02-28T06:56:06;10.13;;;9.27;;
68995;SDS011;56056;48.990;12.146;2023-02-28T06:58:34;4.13;;;3.83;;
68995;SDS011;56056;48.990;12.146;2023-02-28T07:01:00;9.60;;;8.73;;
68995;SDS011;56056;48.990;12.146;2023-02-28T07:03:27;21.20;;;19.27;;
68995;SDS011;56056;48.990;12.146;2023-02-28T07:05:52;44.77;;;39.97;;
68995;SDS011;56056;48.990;12.146;2023-02-28T07:08:18;21.50;;;19.80;;
68995;SDS011;56056;48.990;12.146;2023-02-28T07:10:44;9.00;;;8.40;;
68995;SDS011;56056;48.990;12.146;2023-02-28T07:13:10;7.30;;;6.80;;
68995;SDS011;56056;48.990;12.146;2023-02-28T07:15:37;4.93;;;4.57;;
68995;SDS011;56056;48.990;12.146;2023-02-28T07:18:03;4.07;;;3.70;;
68995;SDS011;56056;48.990;12.146;2023-02-28T07:20:29;11.80;;;9.20;;
68995;SDS011;56056;48.990;12.146;2023-02-28T07:22:55;12.48;;;9.88;;
68995;SDS011;56056;48.990;12.146;2023-02-28T07:25:21;8.07;;;7.25;;
68995;SDS011;56056;48.990;12.146;2023-02-28T07:27:47;4.82;;;4.50;;
68995;SDS011;56056;48.990;12.146;2023-02-28T07:30:13;7.40;;;6.70;;
68995;SDS011;56056;48.990;12.146;2023-02-28T07:32:40;8.95;;;6.30;;
68995;SDS011;56056;48.990;12.146;2023-02-28T07:35:06;5.50;;;5.10;;
68995;SDS011;56056;48.990;12.146;2023-02-28T07:37:33;3.60;;;2.88;;
68995;SDS011;56056;48.990;12.146;2023-02-28T07:40:01;6.60;;;6.05;;
68995;SDS011;56056;48.990;12.146;2023-02-28T07:42:29;8.73;;;7.72;;
68995;SDS011;56056;48.990;12.146;2023-02-28T07:44:54;36.00;;;31.20;;
68995;SDS011;56056;48.990;12.146;2023-02-28T07:47:20;126.35;;;115.45;;
68995;SDS011;56056;48.990;12.146;2023-02-28T07:49:47;264.08;;;225.07;;
68995;SDS011;56056;48.990;12.146;2023-02-28T07:52:13;571.17;;;410.23;;
68995;SDS011;56056;48.990;12.146;2023-02-28T07:54:38;811.58;;;710.17;;
68995;SDS011;56056;48.990;12.146;2023-02-28T07:57:04;673.88;;;558.58;;
68995;SDS011;56056;48.990;12.146;2023-02-28T07:59:29;1730.00;;;927.83;;
68995;SDS011;56056;48.990;12.146;2023-02-28T08:01:56;1845.40;;;945.70;;
68995;SDS011;56056;48.990;12.146;2023-02-28T08:04:22;1866.28;;;999.90;;
68995;SDS011;56056;48.990;12.146;2023-02-28T08:06:49;1999.90;;;999.90;;
68995;SDS011;56056;48.990;12.146;2023-02-28T08:09:17;1999.90;;;999.90;;
68995;SDS011;56056;48.990;12.146;2023-02-28T08:11:42;1941.95;;;999.90;;
68995;SDS011;56056;48.990;12.146;2023-02-28T08:14:08;1999.90;;;999.90;;
68995;SDS011;56056;48.990;12.146;2023-02-28T08:16:33;1999.90;;;999.90;;
68995;SDS011;56056;48.990;12.146;2023-02-28T08:18:59;1999.90;;;999.90;;
68995;SDS011;56056;48.990;12.146;2023-02-28T08:21:25;1999.90;;;999.90;;
68995;SDS011;56056;48.990;12.146;2023-02-28T08:23:52;1999.90;;;999.90;;
68995;SDS011;56056;48.990;12.146;2023-02-28T08:26:18;1999.90;;;999.90;;
68995;SDS011;56056;48.990;12.146;2023-02-28T08:28:44;1999.90;;;999.90;;
68995;SDS011;56056;48.990;12.146;2023-02-28T08:31:10;1999.90;;;999.90;;
68995;SDS011;56056;48.990;12.146;2023-02-28T08:33:38;1999.90;;;999.90;;
68995;SDS011;56056;48.990;12.146;2023-02-28T08:36:04;1999.90;;;999.90;;
68995;SDS011;56056;48.990;12.146;2023-02-28T08:38:31;1999.90;;;999.90;;
68995;SDS011;56056;48.990;12.146;2023-02-28T08:40:59;1999.90;;;999.90;;
68995;SDS011;56056;48.990;12.146;2023-02-28T08:43:25;1678.07;;;991.08;;
68995;SDS011;56056;48.990;12.146;2023-02-28T08:45:51;1889.90;;;912.78;;
68995;SDS011;56056;48.990;12.146;2023-02-28T08:48:16;1048.25;;;552.05;;
68995;SDS011;56056;48.990;12.146;2023-02-28T08:50:42;1231.63;;;832.75;;
68995;SDS011;56056;48.990;12.146;2023-02-28T08:53:08;1439.20;;;869.53;;
68995;SDS011;56056;48.990;12.146;2023-02-28T08:55:33;1603.88;;;821.20;;
68995;SDS011;56056;48.990;12.146;2023-02-28T08:58:00;1320.95;;;945.38;;
68995;SDS011;56056;48.990;12.146;2023-02-28T09:00:26;1999.90;;;999.90;;
68995;SDS011;56056;48.990;12.146;2023-02-28T09:02:52;1993.88;;;999.90;;
68995;SDS011;56056;48.990;12.146;2023-02-28T09:05:17;1999.90;;;999.90;;
68995;SDS011;56056;48.990;12.146;2023-02-28T09:07:43;1999.90;;;999.90;;
68995;SDS011;56056;48.990;12.146;2023-02-28T09:10:09;1999.90;;;999.90;;
68995;SDS011;56056;48.990;12.146;2023-02-28T09:12:35;1999.90;;;999.90;;
68995;SDS011;56056;48.990;12.146;2023-02-28T09:15:03;1999.90;;;999.90;;
68995;SDS011;56056;48.990;12.146;2023-02-28T09:17:29;1999.90;;;999.90;;
68995;SDS011;56056;48.990;12.146;2023-02-28T09:19:55;1999.90;;;999.90;;
68995;SDS011;56056;48.990;12.146;2023-02-28T09:22:21;1999.90;;;999.90;;
68995;SDS011;56056;48.990;12.146;2023-02-28T09:24:47;1999.90;;;938.15;;
68995;SDS011;56056;48.990;12.146;2023-02-28T09:27:13;1999.90;;;999.90;;
68995;SDS011;56056;48.990;12.146;2023-02-28T09:29:38;1999.90;;;999.90;;
68995;SDS011;56056;48.990;12.146;2023-02-28T09:32:05;1999.90;;;999.90;;
68995;SDS011;56056;48.990;12.146;2023-02-28T09:34:31;1990.22;;;852.28;;
68995;SDS011;56056;48.990;12.146;2023-02-28T09:36:57;1999.90;;;999.90;;
68995;SDS011;56056;48.990;12.146;2023-02-28T09:39:22;1999.90;;;930.42;;
68995;SDS011;56056;48.990;12.146;2023-02-28T09:41:49;1999.90;;;999.90;;
68995;SDS011;56056;48.990;12.146;2023-02-28T09:44:17;1999.90;;;999.30;;
68995;SDS011;56056;48.990;12.146;2023-02-28T09:46:46;1999.90;;;999.90;;
68995;SDS011;56056;48.990;12.146;2023-02-28T09:49:17;1999.90;;;999.90;;
68995;SDS011;56056;48.990;12.146;2023-02-28T09:51:46;1999.90;;;999.55;;
68995;SDS011;56056;48.990;12.146;2023-02-28T09:54:16;1999.90;;;999.90;;
68995;SDS011;56056;48.990;12.146;2023-02-28T09:56:44;1999.90;;;999.90;;
68995;SDS011;56056;48.990;12.146;2023-02-28T09:59:13;1999.90;;;977.92;;
68995;SDS011;56056;48.990;12.146;2023-02-28T10:01:43;1999.90;;;999.90;;
68995;SDS011;56056;48.990;12.146;2023-02-28T10:04:15;1999.90;;;999.90;;
68995;SDS011;56056;48.990;12.146;2023-02-28T10:06:50;1999.90;;;999.90;;
68995;SDS011;56056;48.990;12.146;2023-02-28T10:09:17;1999.90;;;955.28;;
68995;SDS011;56056;48.990;12.146;2023-02-28T10:11:46;1999.90;;;992.33;;
68995;SDS011;56056;48.990;12.146;2023-02-28T10:14:12;1999.90;;;999.90;;
68995;SDS011;56056;48.990;12.146;2023-02-28T10:16:40;1999.90;;;999.90;;
68995;SDS011;56056;48.990;12.146;2023-02-28T10:19:11;1999.90;;;999.90;;
68995;SDS011;56056;48.990;12.146;2023-02-28T10:21:42;1999.90;;;999.90;;
68995;SDS011;56056;48.990;12.146;2023-02-28T10:24:14;1999.90;;;999.90;;
68995;SDS011;56056;48.990;12.146;2023-02-28T10:26:45;1999.90;;;999.90;;
68995;SDS011;56056;48.990;12.146;2023-02-28T10:29:12;1999.90;;;999.90;;
68995;SDS011;56056;48.990;12.146;2023-02-28T10:31:38;1999.90;;;999.90;;
68995;SDS011;56056;48.990;12.146;2023-02-28T10:34:04;1999.90;;;999.90;;
68995;SDS011;56056;48.990;12.146;2023-02-28T10:36:31;1999.90;;;999.90;;
68995;SDS011;56056;48.990;12.146;2023-02-28T10:38:58;1999.90;;;999.90;;
68995;SDS011;56056;48.990;12.146;2023-02-28T10:41:29;1999.90;;;999.90;;
68995;SDS011;56056;48.990;12.146;2023-02-28T10:46:49;1999.90;;;999.90;;
68995;SDS011;56056;48.990;12.146;2023-02-28T10:49:17;1999.90;;;999.90;;
68995;SDS011;56056;48.990;12.146;2023-02-28T10:51:44;1999.90;;;999.90;;
68995;SDS011;56056;48.990;12.146;2023-02-28T10:54:16;1999.90;;;999.90;;
68995;SDS011;56056;48.990;12.146;2023-02-28T10:56:44;1999.90;;;982.90;;
68995;SDS011;56056;48.990;12.146;2023-02-28T11:01:54;1999.90;;;999.90;;
68995;SDS011;56056;48.990;12.146;2023-02-28T11:04:32;1999.90;;;999.90;;
68995;SDS011;56056;48.990;12.146;2023-02-28T11:07:02;1999.90;;;999.90;;
68995;SDS011;56056;48.990;12.146;2023-02-28T11:09:32;1970.90;;;895.22;;
68995;SDS011;56056;48.990;12.146;2023-02-28T11:12:00;1999.90;;;999.90;;
68995;SDS011;56056;48.990;12.146;2023-02-28T11:14:27;1999.90;;;999.90;;
68995;SDS011;56056;48.990;12.146;2023-02-28T11:16:54;1999.90;;;999.90;;
68995;SDS011;56056;48.990;12.146;2023-02-28T11:19:30;1999.90;;;852.50;;
68995;SDS011;56056;48.990;12.146;2023-02-28T11:22:02;1999.90;;;904.28;;
68995;SDS011;56056;48.990;12.146;2023-02-28T11:24:30;1999.90;;;999.90;;
68995;SDS011;56056;48.990;12.146;2023-02-28T11:26:59;1935.75;;;709.33;;
68995;SDS011;56056;48.990;12.146;2023-02-28T11:29:26;1999.90;;;999.90;;
68995;SDS011;56056;48.990;12.146;2023-02-28T11:32:11;1999.90;;;999.90;;
68995;SDS011;56056;48.990;12.146;2023-02-28T11:34:39;1999.90;;;999.90;;
68995;SDS011;56056;48.990;12.146;2023-02-28T11:37:08;1999.90;;;999.90;;
68995;SDS011;56056;48.990;12.146;2023-02-28T11:39:37;1999.90;;;999.90;;
68995;SDS011;56056;48.990;12.146;2023-02-28T11:42:07;1999.90;;;999.90;;
68995;SDS011;56056;48.990;12.146;2023-02-28T11:44:48;1999.90;;;999.90;;
68995;SDS011;56056;48.990;12.146;2023-02-28T11:47:26;1999.90;;;999.90;;
68995;SDS011;56056;48.990;12.146;2023-02-28T11:50:02;1999.90;;;999.90;;
68995;SDS011;56056;48.990;12.146;2023-02-28T11:52:37;1999.90;;;999.90;;
68995;SDS011;56056;48.990;12.146;2023-02-28T11:55:11;1999.90;;;999.90;;
68995;SDS011;56056;48.990;12.146;2023-02-28T11:57:51;1999.90;;;869.33;;
68995;SDS011;56056;48.990;12.146;2023-02-28T12:00:36;1999.90;;;999.90;;
68995;SDS011;56056;48.990;12.146;2023-02-28T12:03:09;1999.90;;;999.90;;
68995;SDS011;56056;48.990;12.146;2023-02-28T12:05:43;1999.90;;;549.55;;
68995;SDS011;56056;48.990;12.146;2023-02-28T12:08:15;1999.90;;;999.90;;
68995;SDS011;56056;48.990;12.146;2023-02-28T12:10:53;1999.90;;;717.10;;
68995;SDS011;56056;48.990;12.146;2023-02-28T12:13:24;1999.90;;;684.15;;
68995;SDS011;56056;48.990;12.146;2023-02-28T12:16:13;1999.90;;;843.15;;
68995;SDS011;56056;48.990;12.146;2023-02-28T12:19:04;1999.90;;;848.80;;
68995;SDS011;56056;48.990;12.146;2023-02-28T12:21:39;1999.90;;;783.05;;
68995;SDS011;56056;48.990;12.146;2023-02-28T12:24:16;1999.90;;;785.83;;
68995;SDS011;56056;48.990;12.146;2023-02-28T12:26:52;1999.90;;;675.53;;
68995;SDS011;56056;48.990;12.146;2023-02-28T12:29:19;1999.90;;;999.90;;
68995;SDS011;56056;48.990;12.146;2023-02-28T12:31:49;1999.90;;;865.15;;
68995;SDS011;56056;48.990;12.146;2023-02-28T12:34:19;1999.90;;;936.33;;
68995;SDS011;56056;48.990;12.146;2023-02-28T12:36:47;1999.90;;;781.33;;
68995;SDS011;56056;48.990;12.146;2023-02-28T12:39:15;1999.90;;;655.58;;
68995;SDS011;56056;48.990;12.146;2023-02-28T12:41:44;1999.90;;;999.90;;
68995;SDS011;56056;48.990;12.146;2023-02-28T12:44:14;1999.90;;;520.53;;
68995;SDS011;56056;48.990;12.146;2023-02-28T12:46:44;1999.90;;;576.25;;
68995;SDS011;56056;48.990;12.146;2023-02-28T12:49:12;1999.90;;;755.65;;
68995;SDS011;56056;48.990;12.146;2023-02-28T12:51:40;1999.90;;;861.33;;
68995;SDS011;56056;48.990;12.146;2023-02-28T12:54:09;1999.90;;;923.55;;
68995;SDS011;56056;48.990;12.146;2023-02-28T12:56:42;1999.35;;;398.67;;
68995;SDS011;56056;48.990;12.146;2023-02-28T12:59:11;1988.35;;;852.20;;
68995;SDS011;56056;48.990;12.146;2023-02-28T13:01:51;1999.90;;;999.90;;
68995;SDS011;56056;48.990;12.146;2023-02-28T13:04:43;1691.95;;;671.45;;
68995;SDS011;56056;48.990;12.146;2023-02-28T13:07:22;1999.90;;;999.90;;
68995;SDS011;56056;48.990;12.146;2023-02-28T13:10:02;1999.90;;;999.90;;
68995;SDS011;56056;48.990;12.146;2023-02-28T13:12:29;1999.90;;;999.90;;
68995;SDS011;56056;48.990;12.146;2023-02-28T13:15:04;1999.90;;;999.90;;
68995;SDS011;56056;48.990;12.146;2023-02-28T13:17:36;1780.88;;;675.20;;
68995;SDS011;56056;48.990;12.146;2023-02-28T13:20:03;1999.90;;;999.90;;
68995;SDS011;56056;48.990;12.146;2023-02-28T13:22:37;1999.90;;;999.90;;
68995;SDS011;56056;48.990;12.146;2023-02-28T13:31:16;1999.90;;;999.90;;
68995;SDS011;56056;48.990;12.146;2023-02-28T13:36:31;1999.90;;;967.72;;
68995;SDS011;56056;48.990;12.146;2023-02-28T13:38:58;1805.28;;;725.92;;
68995;SDS011;56056;48.990;12.146;2023-02-28T13:41:41;1999.90;;;999.90;;
68995;SDS011;56056;48.990;12.146;2023-02-28T13:44:08;1999.90;;;888.70;;
68995;SDS011;56056;48.990;12.146;2023-02-28T13:46:38;1999.90;;;999.90;;
68995;SDS011;56056;48.990;12.146;2023-02-28T13:49:42;1999.90;;;999.90;;
68995;SDS011;56056;48.990;12.146;2023-02-28T13:52:10;1999.90;;;939.42;;
68995;SDS011;56056;48.990;12.146;2023-02-28T13:54:43;1999.90;;;634.92;;
68995;SDS011;56056;48.990;12.146;2023-02-28T13:57:26;1999.90;;;999.90;;
68995;SDS011;56056;48.990;12.146;2023-02-28T14:00:03;1999.90;;;999.90;;
68995;SDS011;56056;48.990;12.146;2023-02-28T14:02:41;1999.90;;;887.88;;
68995;SDS011;56056;48.990;12.146;2023-02-28T14:05:15;1999.90;;;999.90;;
68995;SDS011;56056;48.990;12.146;2023-02-28T14:07:43;1995.75;;;815.60;;
68995;SDS011;56056;48.990;12.146;2023-02-28T14:10:21;1999.90;;;999.90;;
68995;SDS011;56056;48.990;12.146;2023-02-28T14:15:57;1999.90;;;999.90;;
68995;SDS011;56056;48.990;12.146;2023-02-28T14:18:25;1999.90;;;844.05;;
68995;SDS011;56056;48.990;12.146;2023-02-28T14:20:57;1999.90;;;999.90;;
68995;SDS011;56056;48.990;12.146;2023-02-28T14:23:32;1999.90;;;999.90;;